sensor_id;sensor_type;location;lat;lon;timestamp;pressure;altitude;pressure_sealevel;temperature;humidity
77572;BME280;67214;47.454;18.966;2023-05-10T00:00:44;100447.53;;;11.40;67.50
77572;BME280;67214;47.454;18.966;2023-05-10T00:03:12;100444.13;;;11.38;67.39
77572;BME280;67214;47.454;18.966;2023-05-10T00:05:40;100437.52;;;11.33;68.08
77572;BME280;67214;47.454;18.966;2023-05-10T00:08:07;100443.55;;;11.24;68.33
77572;BME280;67214;47.454;18.966;2023-05-10T00:10:35;100440.52;;;11.17;68.41
77572;BME280;67214;47.454;18.966;2023-05-10T00:13:03;100438.83;;;11.10;68.94
77572;BME280;67214;47.454;18.966;2023-05-10T00:15:31;100442.31;;;11.05;69.14
77572;BME280;67214;47.454;18.966;2023-05-10T00:17:59;100442.92;;;10.98;69.34
77572;BME280;67214;47.454;18.966;2023-05-10T00:20:26;100451.38;;;10.92;69.68
77572;BME280;67214;47.454;18.966;2023-05-10T00:22:54;100445.56;;;10.87;69.89
77572;BME280;67214;47.454;18.966;2023-05-10T00:25:21;100445.56;;;10.87;69.96
77572;BME280;67214;47.454;18.966;2023-05-10T00:27:48;100438.69;;;10.90;69.62
77572;BME280;67214;47.454;18.966;2023-05-10T00:30:16;100435.66;;;10.89;69.94
77572;BME280;67214;47.454;18.966;2023-05-10T00:32:44;100437.61;;;10.87;70.19
77572;BME280;67214;47.454;18.966;2023-05-10T00:35:11;100439.30;;;10.88;70.11
77572;BME280;67214;47.454;18.966;2023-05-10T00:37:39;100444.23;;;10.87;70.12
77572;BME280;67214;47.454;18.966;2023-05-10T00:40:07;100436.39;;;10.85;70.01
77572;BME280;67214;47.454;18.966;2023-05-10T00:42:35;100437.94;;;10.77;70.32
77572;BME280;67214;47.454;18.966;2023-05-10T00:45:02;100437.57;;;10.70;70.77
77572;BME280;67214;47.454;18.966;2023-05-10T00:47:30;100439.34;;;10.64;70.84
77572;BME280;67214;47.454;18.966;2023-05-10T00:49:59;100438.88;;;10.59;71.23
77572;BME280;67214;47.454;18.966;2023-05-10T00:52:28;100434.77;;;10.55;71.78
77572;BME280;67214;47.454;18.966;2023-05-10T00:54:56;100428.75;;;10.58;71.25
77572;BME280;67214;47.454;18.966;2023-05-10T00:57:25;100435.01;;;10.57;71.43
77572;BME280;67214;47.454;18.966;2023-05-10T00:59:54;100431.13;;;10.56;71.83
77572;BME280;67214;47.454;18.966;2023-05-10T01:02:22;100432.22;;;10.53;71.57
77572;BME280;67214;47.454;18.966;2023-05-10T01:04:50;100429.95;;;10.54;71.91
77572;BME280;67214;47.454;18.966;2023-05-10T01:07:18;100429.58;;;10.53;72.00
77572;BME280;67214;47.454;18.966;2023-05-10T01:09:45;100428.86;;;10.51;72.27
77572;BME280;67214;47.454;18.966;2023-05-10T01:12:13;100433.05;;;10.48;72.41
77572;BME280;67214;47.454;18.966;2023-05-10T01:14:41;100424.00;;;10.45;72.66
77572;BME280;67214;47.454;18.966;2023-05-10T01:17:09;100424.95;;;10.44;72.45
77572;BME280;67214;47.454;18.966;2023-05-10T01:19:38;100424.95;;;10.44;72.40
77572;BME280;67214;47.454;18.966;2023-05-10T01:22:41;100422.55;;;10.41;72.33
77572;BME280;67214;47.454;18.966;2023-05-10T01:25:32;100430.13;;;10.40;72.62
77572;BME280;67214;47.454;18.966;2023-05-10T01:28:20;100428.33;;;10.35;73.05
77572;BME280;67214;47.454;18.966;2023-05-10T01:31:12;100423.70;;;10.32;73.29
77572;BME280;67214;47.454;18.966;2023-05-10T01:33:43;100423.37;;;10.31;73.26
77572;BME280;67214;47.454;18.966;2023-05-10T01:41:55;100419.59;;;10.28;73.42
77572;BME280;67214;47.454;18.966;2023-05-10T01:47:08;100423.34;;;10.25;73.28
77572;BME280;67214;47.454;18.966;2023-05-10T01:49:52;100415.83;;;10.19;73.37
77572;BME280;67214;47.454;18.966;2023-05-10T01:52:32;100416.06;;;10.16;73.38
77572;BME280;67214;47.454;18.966;2023-05-10T01:55:11;100409.75;;;10.11;73.45
77572;BME280;67214;47.454;18.966;2023-05-10T01:57:35;100420.11;;;10.09;73.82
77572;BME280;67214;47.454;18.966;2023-05-10T02:00:04;100410.09;;;10.07;73.80
77572;BME280;67214;47.454;18.966;2023-05-10T02:02:37;100411.41;;;10.07;73.87
77572;BME280;67214;47.454;18.966;2023-05-10T02:05:06;100402.98;;;10.07;73.90
77572;BME280;67214;47.454;18.966;2023-05-10T02:07:36;100412.53;;;10.10;73.98
77572;BME280;67214;47.454;18.966;2023-05-10T02:10:08;100402.64;;;10.12;74.11
77572;BME280;67214;47.454;18.966;2023-05-10T02:12:43;100397.34;;;10.12;74.31
77572;BME280;67214;47.454;18.966;2023-05-10T02:15:07;100397.24;;;10.13;74.17
77572;BME280;67214;47.454;18.966;2023-05-10T02:17:37;100397.04;;;10.16;73.99
77572;BME280;67214;47.454;18.966;2023-05-10T02:20:07;100386.47;;;10.22;73.91
77572;BME280;67214;47.454;18.966;2023-05-10T02:22:37;100389.45;;;10.23;74.01
77572;BME280;67214;47.454;18.966;2023-05-10T02:25:07;100392.24;;;10.27;73.82
77572;BME280;67214;47.454;18.966;2023-05-10T02:27:37;100391.29;;;10.28;73.75
77572;BME280;67214;47.454;18.966;2023-05-10T02:30:11;100401.45;;;10.34;73.48
77572;BME280;67214;47.454;18.966;2023-05-10T02:32:36;100393.52;;;10.45;73.38
77572;BME280;67214;47.454;18.966;2023-05-10T02:35:04;100381.95;;;10.52;73.22
77572;BME280;67214;47.454;18.966;2023-05-10T02:37:33;100390.16;;;10.60;73.09
77572;BME280;67214;47.454;18.966;2023-05-10T02:40:02;100386.33;;;10.69;72.16
77572;BME280;67214;47.454;18.966;2023-05-10T02:42:35;100395.75;;;10.79;72.10
77572;BME280;67214;47.454;18.966;2023-05-10T02:45:13;100385.50;;;10.86;72.29
77572;BME280;67214;47.454;18.966;2023-05-10T02:47:42;100391.88;;;10.89;71.83
77572;BME280;67214;47.454;18.966;2023-05-10T02:50:10;100396.36;;;10.94;71.73
77572;BME280;67214;47.454;18.966;2023-05-10T02:52:49;100395.16;;;10.98;71.38
77572;BME280;67214;47.454;18.966;2023-05-10T02:55:21;100386.71;;;10.98;70.52
77572;BME280;67214;47.454;18.966;2023-05-10T02:58:00;100385.75;;;10.99;70.58
77572;BME280;67214;47.454;18.966;2023-05-10T03:00:28;100389.12;;;11.01;70.72
77572;BME280;67214;47.454;18.966;2023-05-10T03:02:55;100387.79;;;11.01;70.87
77572;BME280;67214;47.454;18.966;2023-05-10T03:05:23;100391.17;;;10.98;70.60
77572;BME280;67214;47.454;18.966;2023-05-10T03:07:51;100391.05;;;10.94;70.09
77572;BME280;67214;47.454;18.966;2023-05-10T03:10:20;100393.47;;;10.91;70.04
77572;BME280;67214;47.454;18.966;2023-05-10T03:13:13;100394.08;;;10.84;70.27
77572;BME280;67214;47.454;18.966;2023-05-10T03:15:49;100388.38;;;10.77;69.89
77572;BME280;67214;47.454;18.966;2023-05-10T03:18:28;100400.44;;;10.70;70.46
77572;BME280;67214;47.454;18.966;2023-05-10T03:20:57;100397.50;;;10.56;71.05
77572;BME280;67214;47.454;18.966;2023-05-10T03:23:31;100399.91;;;10.43;71.76
77572;BME280;67214;47.454;18.966;2023-05-10T03:26:00;100394.45;;;10.33;71.94
77572;BME280;67214;47.454;18.966;2023-05-10T03:28:28;100388.77;;;10.27;71.90
77572;BME280;67214;47.454;18.966;2023-05-10T03:30:57;100395.13;;;10.18;72.08
77572;BME280;67214;47.454;18.966;2023-05-10T03:33:25;100394.70;;;10.12;72.32
77572;BME280;67214;47.454;18.966;2023-05-10T03:35:53;100394.56;;;10.08;72.67
77572;BME280;67214;47.454;18.966;2023-05-10T03:38:20;100394.32;;;10.05;72.87
77572;BME280;67214;47.454;18.966;2023-05-10T03:40:47;100392.72;;;10.03;73.03
77572;BME280;67214;47.454;18.966;2023-05-10T03:43:15;100394.05;;;10.03;73.14
77572;BME280;67214;47.454;18.966;2023-05-10T03:45:42;100397.07;;;10.04;73.43
77572;BME280;67214;47.454;18.966;2023-05-10T03:48:10;100380.94;;;10.01;73.19
77572;BME280;67214;47.454;18.966;2023-05-10T03:50:39;100393.57;;;9.98;73.30
77572;BME280;67214;47.454;18.966;2023-05-10T03:53:06;100398.97;;;9.96;73.08
77572;BME280;67214;47.454;18.966;2023-05-10T03:55:34;100393.77;;;9.95;73.64
77572;BME280;67214;47.454;18.966;2023-05-10T03:58:02;100397.17;;;9.97;73.18
77572;BME280;67214;47.454;18.966;2023-05-10T04:00:30;100390.92;;;9.98;72.86
77572;BME280;67214;47.454;18.966;2023-05-10T04:02:57;100392.11;;;9.99;72.77
77572;BME280;67214;47.454;18.966;2023-05-10T04:05:25;100393.20;;;9.97;73.12
77572;BME280;67214;47.454;18.966;2023-05-10T04:07:52;100394.38;;;9.93;73.22
77572;BME280;67214;47.454;18.966;2023-05-10T04:10:20;100393.77;;;9.89;73.02
77572;BME280;67214;47.454;18.966;2023-05-10T04:12:47;100385.69;;;9.91;73.64
77572;BME280;67214;47.454;18.966;2023-05-10T04:15:15;100385.69;;;9.91;73.11
77572;BME280;67214;47.454;18.966;2023-05-10T04:17:42;100385.97;;;9.99;72.30
77572;BME280;67214;47.454;18.966;2023-05-10T04:20:11;100380.46;;;10.02;72.34
77572;BME280;67214;47.454;18.966;2023-05-10T04:22:38;100376.34;;;10.03;72.47
77572;BME280;67214;47.454;18.966;2023-05-10T04:25:06;100391.33;;;10.10;71.43
77572;BME280;67214;47.454;18.966;2023-05-10T04:27:34;100396.73;;;10.27;71.46
77572;BME280;67214;47.454;18.966;2023-05-10T04:30:01;100399.48;;;10.25;71.14
77572;BME280;67214;47.454;18.966;2023-05-10T04:32:29;100400.84;;;10.31;71.62
77572;BME280;67214;47.454;18.966;2023-05-10T04:34:57;100401.45;;;10.34;71.28
77572;BME280;67214;47.454;18.966;2023-05-10T04:37:25;100403.98;;;10.41;70.69
77572;BME280;67214;47.454;18.966;2023-05-10T04:39:52;100403.40;;;10.49;70.82
77572;BME280;67214;47.454;18.966;2023-05-10T04:42:19;100406.55;;;10.54;70.41
77572;BME280;67214;47.454;18.966;2023-05-10T04:44:47;100408.62;;;10.61;70.27
77572;BME280;67214;47.454;18.966;2023-05-10T04:47:14;100393.44;;;10.69;69.80
77572;BME280;67214;47.454;18.966;2023-05-10T04:49:42;100397.80;;;10.76;69.45
77572;BME280;67214;47.454;18.966;2023-05-10T04:52:10;100399.48;;;10.82;69.50
77572;BME280;67214;47.454;18.966;2023-05-10T04:54:37;100398.52;;;10.89;69.20
77572;BME280;67214;47.454;18.966;2023-05-10T04:57:05;100395.40;;;10.95;68.80
77572;BME280;67214;47.454;18.966;2023-05-10T04:59:32;100390.92;;;11.01;69.03
77572;BME280;67214;47.454;18.966;2023-05-10T05:02:00;100393.48;;;11.08;68.48
77572;BME280;67214;47.454;18.966;2023-05-10T05:04:27;100400.69;;;11.17;68.63
77572;BME280;67214;47.454;18.966;2023-05-10T05:06:55;100391.16;;;11.26;68.49
77572;BME280;67214;47.454;18.966;2023-05-10T05:09:22;100392.97;;;11.36;67.57
77572;BME280;67214;47.454;18.966;2023-05-10T05:11:50;100395.23;;;11.46;67.85
77572;BME280;67214;47.454;18.966;2023-05-10T05:14:17;100391.33;;;11.61;66.97
77572;BME280;67214;47.454;18.966;2023-05-10T05:16:46;100401.03;;;11.74;66.36
77572;BME280;67214;47.454;18.966;2023-05-10T05:19:14;100397.00;;;11.85;66.21
77572;BME280;67214;47.454;18.966;2023-05-10T05:21:41;100395.89;;;11.93;66.51
77572;BME280;67214;47.454;18.966;2023-05-10T05:24:09;100398.28;;;11.96;65.08
77572;BME280;67214;47.454;18.966;2023-05-10T05:26:38;100391.05;;;11.98;65.81
77572;BME280;67214;47.454;18.966;2023-05-10T05:29:06;100390.52;;;12.04;65.58
77572;BME280;67214;47.454;18.966;2023-05-10T05:31:34;100402.05;;;12.20;65.23
77572;BME280;67214;47.454;18.966;2023-05-10T05:34:01;100397.02;;;12.37;64.84
77572;BME280;67214;47.454;18.966;2023-05-10T05:36:28;100401.52;;;12.52;64.22
77572;BME280;67214;47.454;18.966;2023-05-10T05:38:58;100404.92;;;12.69;63.77
77572;BME280;67214;47.454;18.966;2023-05-10T05:41:25;100401.48;;;12.78;63.44
77572;BME280;67214;47.454;18.966;2023-05-10T05:43:52;100408.90;;;12.90;63.74
77572;BME280;67214;47.454;18.966;2023-05-10T05:46:20;100403.00;;;13.01;63.49
77572;BME280;67214;47.454;18.966;2023-05-10T05:48:47;100408.14;;;13.14;62.35
77572;BME280;67214;47.454;18.966;2023-05-10T05:51:15;100415.05;;;13.26;62.17
77572;BME280;67214;47.454;18.966;2023-05-10T05:53:42;100413.98;;;13.38;62.10
77572;BME280;67214;47.454;18.966;2023-05-10T05:56:09;100415.77;;;13.53;60.98
77572;BME280;67214;47.454;18.966;2023-05-10T05:58:37;100417.41;;;13.60;60.70
77572;BME280;67214;47.454;18.966;2023-05-10T06:01:04;100415.27;;;13.69;60.59
77572;BME280;67214;47.454;18.966;2023-05-10T06:03:36;100420.68;;;13.82;60.10
77572;BME280;67214;47.454;18.966;2023-05-10T06:06:01;100424.78;;;13.96;59.74
77572;BME280;67214;47.454;18.966;2023-05-10T06:08:28;100418.34;;;14.08;60.24
77572;BME280;67214;47.454;18.966;2023-05-10T06:10:56;100414.69;;;14.28;58.84
77572;BME280;67214;47.454;18.966;2023-05-10T06:13:23;100413.30;;;14.34;58.25
77572;BME280;67214;47.454;18.966;2023-05-10T06:15:51;100425.66;;;14.35;58.63
77572;BME280;67214;47.454;18.966;2023-05-10T06:18:18;100424.22;;;14.31;57.83
77572;BME280;67214;47.454;18.966;2023-05-10T06:20:46;100422.49;;;14.26;58.04
77572;BME280;67214;47.454;18.966;2023-05-10T06:23:13;100429.64;;;14.16;58.32
77572;BME280;67214;47.454;18.966;2023-05-10T06:25:41;100426.98;;;14.25;57.92
77572;BME280;67214;47.454;18.966;2023-05-10T06:28:08;100435.96;;;14.24;57.40
77572;BME280;67214;47.454;18.966;2023-05-10T06:30:36;100426.16;;;14.44;58.65
77572;BME280;67214;47.454;18.966;2023-05-10T06:33:04;100439.92;;;14.59;58.00
77572;BME280;67214;47.454;18.966;2023-05-10T06:35:31;100433.94;;;14.70;57.04
77572;BME280;67214;47.454;18.966;2023-05-10T06:37:59;100436.80;;;14.82;57.64
77572;BME280;67214;47.454;18.966;2023-05-10T06:40:27;100432.25;;;14.93;57.34
77572;BME280;67214;47.454;18.966;2023-05-10T06:42:54;100428.10;;;15.04;56.32
77572;BME280;67214;47.454;18.966;2023-05-10T06:45:22;100428.17;;;14.98;55.83
77572;BME280;67214;47.454;18.966;2023-05-10T06:47:49;100427.69;;;14.99;56.04
77572;BME280;67214;47.454;18.966;2023-05-10T06:50:17;100428.70;;;15.11;56.21
77572;BME280;67214;47.454;18.966;2023-05-10T06:52:44;100427.53;;;15.23;56.56
77572;BME280;67214;47.454;18.966;2023-05-10T06:55:11;100421.74;;;15.42;55.19
77572;BME280;67214;47.454;18.966;2023-05-10T06:57:39;100415.95;;;15.46;55.20
77572;BME280;67214;47.454;18.966;2023-05-10T07:00:07;100409.98;;;15.62;53.59
77572;BME280;67214;47.454;18.966;2023-05-10T07:02:35;100407.17;;;15.63;53.84
77572;BME280;67214;47.454;18.966;2023-05-10T07:05:03;100406.42;;;15.71;54.36
77572;BME280;67214;47.454;18.966;2023-05-10T07:07:31;100411.91;;;15.83;52.70
77572;BME280;67214;47.454;18.966;2023-05-10T07:09:58;100405.66;;;15.78;53.89
77572;BME280;67214;47.454;18.966;2023-05-10T07:12:26;100409.50;;;15.94;53.78
77572;BME280;67214;47.454;18.966;2023-05-10T07:14:54;100402.48;;;16.10;52.53
77572;BME280;67214;47.454;18.966;2023-05-10T07:17:21;100415.19;;;16.26;51.86
77572;BME280;67214;47.454;18.966;2023-05-10T07:19:49;100409.56;;;16.33;51.21
77572;BME280;67214;47.454;18.966;2023-05-10T07:22:17;100405.72;;;16.36;51.66
77572;BME280;67214;47.454;18.966;2023-05-10T07:24:44;100402.41;;;16.20;52.00
77572;BME280;67214;47.454;18.966;2023-05-10T07:27:12;100410.44;;;16.38;52.48
77572;BME280;67214;47.454;18.966;2023-05-10T07:29:39;100405.86;;;16.52;52.51
77572;BME280;67214;47.454;18.966;2023-05-10T07:32:07;100401.35;;;16.70;51.39
77572;BME280;67214;47.454;18.966;2023-05-10T07:34:35;100408.57;;;16.73;50.81
77572;BME280;67214;47.454;18.966;2023-05-10T07:37:02;100397.61;;;16.89;49.81
77572;BME280;67214;47.454;18.966;2023-05-10T07:39:30;100396.59;;;16.86;50.43
77572;BME280;67214;47.454;18.966;2023-05-10T07:41:57;100401.30;;;16.62;50.75
77572;BME280;67214;47.454;18.966;2023-05-10T07:44:25;100406.81;;;16.47;51.64
77572;BME280;67214;47.454;18.966;2023-05-10T07:46:52;100400.33;;;16.71;51.36
77572;BME280;67214;47.454;18.966;2023-05-10T07:49:20;100404.26;;;16.81;50.12
77572;BME280;67214;47.454;18.966;2023-05-10T07:51:47;100396.84;;;16.70;50.68
77572;BME280;67214;47.454;18.966;2023-05-10T07:54:15;100400.23;;;16.81;52.05
77572;BME280;67214;47.454;18.966;2023-05-10T07:56:43;100405.22;;;16.76;51.82
77572;BME280;67214;47.454;18.966;2023-05-10T07:59:17;100394.22;;;16.79;52.95
77572;BME280;67214;47.454;18.966;2023-05-10T08:01:44;100395.56;;;17.12;51.37
77572;BME280;67214;47.454;18.966;2023-05-10T08:04:12;100396.76;;;17.14;51.53
77572;BME280;67214;47.454;18.966;2023-05-10T08:06:40;100385.63;;;17.01;51.65
77572;BME280;67214;47.454;18.966;2023-05-10T08:09:08;100401.56;;;17.40;51.56
77572;BME280;67214;47.454;18.966;2023-05-10T08:11:35;100391.41;;;17.52;50.16
77572;BME280;67214;47.454;18.966;2023-05-10T08:14:03;100402.22;;;17.68;48.81
77572;BME280;67214;47.454;18.966;2023-05-10T08:16:31;100395.40;;;17.44;48.99
77572;BME280;67214;47.454;18.966;2023-05-10T08:18:58;100391.54;;;17.46;49.92
77572;BME280;67214;47.454;18.966;2023-05-10T08:21:26;100390.27;;;17.25;50.30
77572;BME280;67214;47.454;18.966;2023-05-10T08:23:53;100402.33;;;17.25;49.98
77572;BME280;67214;47.454;18.966;2023-05-10T08:26:21;100402.59;;;17.09;50.84
77572;BME280;67214;47.454;18.966;2023-05-10T08:28:48;100395.03;;;17.39;49.96
77572;BME280;67214;47.454;18.966;2023-05-10T08:31:16;100398.41;;;17.49;49.89
77572;BME280;67214;47.454;18.966;2023-05-10T08:33:44;100397.05;;;17.83;49.67
77572;BME280;67214;47.454;18.966;2023-05-10T08:36:11;100388.63;;;17.70;49.86
77572;BME280;67214;47.454;18.966;2023-05-10T08:38:40;100397.17;;;17.69;49.78
77572;BME280;67214;47.454;18.966;2023-05-10T08:41:08;100395.17;;;17.67;49.50
77572;BME280;67214;47.454;18.966;2023-05-10T08:43:38;100388.12;;;17.70;50.02
77572;BME280;67214;47.454;18.966;2023-05-10T08:46:08;100392.89;;;17.96;49.93
77572;BME280;67214;47.454;18.966;2023-05-10T08:48:36;100378.62;;;17.88;48.56
77572;BME280;67214;47.454;18.966;2023-05-10T08:51:06;100389.19;;;17.97;48.91
77572;BME280;67214;47.454;18.966;2023-05-10T08:53:36;100393.09;;;18.31;47.51
77572;BME280;67214;47.454;18.966;2023-05-10T08:56:05;100397.64;;;18.63;46.16
77572;BME280;67214;47.454;18.966;2023-05-10T08:58:32;100392.58;;;18.80;46.78
77572;BME280;67214;47.454;18.966;2023-05-10T09:01:01;100387.91;;;19.29;46.01
77572;BME280;67214;47.454;18.966;2023-05-10T09:03:29;100391.96;;;19.25;45.31
77572;BME280;67214;47.454;18.966;2023-05-10T09:05:59;100383.42;;;19.18;45.99
77572;BME280;67214;47.454;18.966;2023-05-10T09:08:26;100381.41;;;19.63;45.61
77572;BME280;67214;47.454;18.966;2023-05-10T09:10:55;100382.78;;;19.59;44.47
77572;BME280;67214;47.454;18.966;2023-05-10T09:13:24;100384.56;;;19.70;44.06
77572;BME280;67214;47.454;18.966;2023-05-10T09:15:52;100386.84;;;19.55;43.68
77572;BME280;67214;47.454;18.966;2023-05-10T09:18:20;100377.34;;;19.20;44.40
77572;BME280;67214;47.454;18.966;2023-05-10T09:20:48;100380.08;;;19.08;45.32
77572;BME280;67214;47.454;18.966;2023-05-10T09:23:16;100375.39;;;19.06;44.85
77572;BME280;67214;47.454;18.966;2023-05-10T09:25:43;100374.71;;;19.03;45.82
77572;BME280;67214;47.454;18.966;2023-05-10T09:28:11;100387.13;;;19.13;45.11
77572;BME280;67214;47.454;18.966;2023-05-10T09:30:39;100376.37;;;19.13;45.80
77572;BME280;67214;47.454;18.966;2023-05-10T09:33:06;100369.55;;;19.45;44.20
77572;BME280;67214;47.454;18.966;2023-05-10T09:35:34;100375.52;;;19.16;44.84
77572;BME280;67214;47.454;18.966;2023-05-10T09:38:04;100374.62;;;19.28;44.95
77572;BME280;67214;47.454;18.966;2023-05-10T09:40:31;100364.28;;;19.86;43.02
77572;BME280;67214;47.454;18.966;2023-05-10T09:43:06;100358.30;;;19.76;43.87
77572;BME280;67214;47.454;18.966;2023-05-10T09:45:31;100367.14;;;20.12;43.13
77572;BME280;67214;47.454;18.966;2023-05-10T09:48:00;100360.55;;;20.56;42.92
77572;BME280;67214;47.454;18.966;2023-05-10T09:50:29;100371.65;;;20.15;42.20
77572;BME280;67214;47.454;18.966;2023-05-10T09:53:01;100360.86;;;19.97;42.58
77572;BME280;67214;47.454;18.966;2023-05-10T09:55:45;100368.59;;;19.95;44.37
77572;BME280;67214;47.454;18.966;2023-05-10T09:58:12;100367.59;;;19.66;43.75
77572;BME280;67214;47.454;18.966;2023-05-10T10:00:45;100357.26;;;19.51;44.45
77572;BME280;67214;47.454;18.966;2023-05-10T10:03:20;100355.49;;;19.27;44.77
77572;BME280;67214;47.454;18.966;2023-05-10T10:05:49;100338.47;;;19.69;45.96
77572;BME280;67214;47.454;18.966;2023-05-10T10:08:18;100344.56;;;19.90;43.90
77572;BME280;67214;47.454;18.966;2023-05-10T10:10:47;100346.55;;;19.96;43.73
77572;BME280;67214;47.454;18.966;2023-05-10T10:13:14;100346.09;;;20.34;42.83
77572;BME280;67214;47.454;18.966;2023-05-10T10:15:43;100346.54;;;20.60;43.27
77572;BME280;67214;47.454;18.966;2023-05-10T10:18:15;100343.47;;;20.63;40.10
77572;BME280;67214;47.454;18.966;2023-05-10T10:20:43;100341.91;;;20.83;40.65
77572;BME280;67214;47.454;18.966;2023-05-10T10:23:10;100334.71;;;21.09;40.12
77572;BME280;67214;47.454;18.966;2023-05-10T10:25:38;100330.39;;;21.33;40.31
77572;BME280;67214;47.454;18.966;2023-05-10T10:30:48;100336.84;;;21.18;40.17
77572;BME280;67214;47.454;18.966;2023-05-10T10:33:40;100329.98;;;20.82;41.23
77572;BME280;67214;47.454;18.966;2023-05-10T10:36:07;100332.37;;;20.92;41.76
77572;BME280;67214;47.454;18.966;2023-05-10T10:41:34;100327.09;;;20.98;39.84
77572;BME280;67214;47.454;18.966;2023-05-10T10:47:01;100317.80;;;21.41;40.50
77572;BME280;67214;47.454;18.966;2023-05-10T10:49:31;100324.81;;;21.06;40.46
77572;BME280;67214;47.454;18.966;2023-05-10T10:52:23;100318.13;;;21.31;39.24
77572;BME280;67214;47.454;18.966;2023-05-10T10:55:04;100308.56;;;21.14;39.13
77572;BME280;67214;47.454;18.966;2023-05-10T11:03:06;100296.58;;;23.23;36.83
77572;BME280;67214;47.454;18.966;2023-05-10T11:05:39;100294.34;;;22.86;37.15
77572;BME280;67214;47.454;18.966;2023-05-10T11:08:15;100301.66;;;22.25;36.53
77572;BME280;67214;47.454;18.966;2023-05-10T11:10:51;100294.98;;;21.90;37.87
77572;BME280;67214;47.454;18.966;2023-05-10T11:13:32;100292.27;;;21.47;37.75
77572;BME280;67214;47.454;18.966;2023-05-10T11:16:22;100295.19;;;21.02;38.82
77572;BME280;67214;47.454;18.966;2023-05-10T11:18:29;100298.88;;;20.90;39.91
77572;BME280;67214;47.454;18.966;2023-05-10T11:21:01;100287.70;;;21.69;39.28
77572;BME280;67214;47.454;18.966;2023-05-10T11:23:33;100287.20;;;22.50;37.04
77572;BME280;67214;47.454;18.966;2023-05-10T11:26:01;100283.55;;;22.19;36.83
77572;BME280;67214;47.454;18.966;2023-05-10T11:28:29;100288.50;;;21.84;37.71
77572;BME280;67214;47.454;18.966;2023-05-10T11:30:57;100279.49;;;21.56;38.78
77572;BME280;67214;47.454;18.966;2023-05-10T11:33:24;100279.34;;;21.53;38.48
77572;BME280;67214;47.454;18.966;2023-05-10T11:35:52;100283.39;;;21.53;38.65
77572;BME280;67214;47.454;18.966;2023-05-10T11:38:19;100284.41;;;21.52;38.03
77572;BME280;67214;47.454;18.966;2023-05-10T11:40:47;100283.50;;;22.13;37.49
77572;BME280;67214;47.454;18.966;2023-05-10T11:43:16;100274.20;;;22.22;36.15
77572;BME280;67214;47.454;18.966;2023-05-10T11:45:43;100277.32;;;21.98;36.72
77572;BME280;67214;47.454;18.966;2023-05-10T11:48:12;100261.59;;;22.29;37.24
77572;BME280;67214;47.454;18.966;2023-05-10T11:50:39;100268.50;;;22.38;35.91
77572;BME280;67214;47.454;18.966;2023-05-10T11:53:07;100263.39;;;23.25;34.58
77572;BME280;67214;47.454;18.966;2023-05-10T11:55:34;100252.44;;;23.96;33.53
77572;BME280;67214;47.454;18.966;2023-05-10T11:58:02;100262.30;;;23.80;33.95
77572;BME280;67214;47.454;18.966;2023-05-10T12:00:30;100262.48;;;23.05;35.07
77572;BME280;67214;47.454;18.966;2023-05-10T12:02:58;100260.22;;;22.91;35.49
77572;BME280;67214;47.454;18.966;2023-05-10T12:05:26;100265.94;;;23.77;34.25
77572;BME280;67214;47.454;18.966;2023-05-10T12:08:09;100264.84;;;24.08;33.59
77572;BME280;67214;47.454;18.966;2023-05-10T12:10:25;100265.04;;;24.06;34.40
77572;BME280;67214;47.454;18.966;2023-05-10T12:12:53;100263.67;;;23.87;33.78
77572;BME280;67214;47.454;18.966;2023-05-10T12:15:23;100261.33;;;23.51;34.72
77572;BME280;67214;47.454;18.966;2023-05-10T12:17:51;100268.28;;;22.67;35.67
77572;BME280;67214;47.454;18.966;2023-05-10T12:20:20;100269.30;;;22.04;36.04
77572;BME280;67214;47.454;18.966;2023-05-10T12:22:55;100273.36;;;21.68;36.34
77572;BME280;67214;47.454;18.966;2023-05-10T12:25:28;100265.59;;;21.69;35.96
77572;BME280;67214;47.454;18.966;2023-05-10T12:27:55;100258.07;;;21.86;35.25
77572;BME280;67214;47.454;18.966;2023-05-10T12:30:24;100259.07;;;22.00;35.31
77572;BME280;67214;47.454;18.966;2023-05-10T12:32:52;100250.39;;;22.21;35.72
77572;BME280;67214;47.454;18.966;2023-05-10T12:35:20;100247.17;;;22.33;36.16
77572;BME280;67214;47.454;18.966;2023-05-10T12:37:51;100242.59;;;22.67;36.35
77572;BME280;67214;47.454;18.966;2023-05-10T12:40:18;100244.82;;;23.15;35.79
77572;BME280;67214;47.454;18.966;2023-05-10T12:42:46;100243.05;;;23.12;34.41
77572;BME280;67214;47.454;18.966;2023-05-10T12:45:15;100240.47;;;23.45;34.10
77572;BME280;67214;47.454;18.966;2023-05-10T12:47:42;100230.59;;;23.24;36.03
77572;BME280;67214;47.454;18.966;2023-05-10T12:50:10;100231.48;;;23.94;34.40
77572;BME280;67214;47.454;18.966;2023-05-10T12:52:37;100236.25;;;23.92;33.62
77572;BME280;67214;47.454;18.966;2023-05-10T12:55:05;100226.16;;;23.90;33.96
77572;BME280;67214;47.454;18.966;2023-05-10T12:57:32;100225.29;;;23.50;33.93
77572;BME280;67214;47.454;18.966;2023-05-10T13:00:00;100223.62;;;23.49;34.07
77572;BME280;67214;47.454;18.966;2023-05-10T13:02:27;100219.08;;;24.02;33.84
77572;BME280;67214;47.454;18.966;2023-05-10T13:04:55;100214.38;;;24.75;33.29
77572;BME280;67214;47.454;18.966;2023-05-10T13:07:22;100212.06;;;25.14;31.23
77572;BME280;67214;47.454;18.966;2023-05-10T13:09:50;100212.89;;;24.92;31.37
77572;BME280;67214;47.454;18.966;2023-05-10T13:12:17;100213.44;;;25.30;30.71